createdAt,value
2022-12-20T00:01:34.227Z,12.05
2022-12-20T00:04:05.434Z,12.05
2022-12-20T00:06:35.226Z,10.43
2022-12-20T00:09:06.167Z,10.13
2022-12-20T00:11:33.089Z,11.65
2022-12-20T00:13:59.920Z,10.18
2022-12-20T00:16:29.048Z,8.48
2022-12-20T00:19:00.111Z,9.73
2022-12-20T00:21:28.469Z,9.55
2022-12-20T00:23:55.865Z,10.65
2022-12-20T00:26:29.311Z,10.38
2022-12-20T00:28:56.797Z,9.32
2022-12-20T00:31:25.865Z,13.13
2022-12-20T00:33:55.393Z,9.93
2022-12-20T00:36:24.527Z,10.80
2022-12-20T00:38:55.066Z,10.73
2022-12-20T00:41:28.673Z,11.75
2022-12-20T00:43:55.875Z,10.95
2022-12-20T00:46:24.537Z,11.27
2022-12-20T00:48:53.534Z,12.35
2022-12-20T00:51:27.397Z,12.55
2022-12-20T00:53:54.845Z,12.35
2022-12-20T00:56:22.113Z,11.55
2022-12-20T00:58:49.507Z,12.90
2022-12-20T01:01:27.823Z,11.20
2022-12-20T01:03:55.290Z,12.05
2022-12-20T01:06:24.887Z,10.05
2022-12-20T01:08:53.755Z,12.23
2022-12-20T01:11:27.347Z,9.48
2022-12-20T01:13:57.286Z,10.57
2022-12-20T01:19:17.321Z,9.93
2022-12-20T01:21:44.720Z,10.48
2022-12-20T01:24:16.667Z,8.38
2022-12-20T01:26:44.513Z,9.25
2022-12-20T01:29:12.141Z,10.68
2022-12-20T01:31:39.014Z,8.77
2022-12-20T01:34:06.722Z,10.60
2022-12-20T01:36:35.835Z,10.13
2022-12-20T01:39:11.483Z,13.82
2022-12-20T01:41:39.247Z,11.45
2022-12-20T01:44:18.321Z,10.63
2022-12-20T01:46:48.092Z,9.57
2022-12-20T01:49:46.007Z,9.65
2022-12-20T01:52:23.116Z,11.50
2022-12-20T01:55:13.750Z,9.95
2022-12-20T01:57:51.555Z,8.73
2022-12-20T02:00:19.177Z,9.68
2022-12-20T02:02:49.434Z,9.70
2022-12-20T02:05:19.078Z,9.07
2022-12-20T02:07:49.502Z,9.38
2022-12-20T02:10:18.617Z,9.10
2022-12-20T02:12:47.760Z,9.70
2022-12-20T02:15:39.209Z,9.00
2022-12-20T02:18:24.159Z,8.85
2022-12-20T02:21:25.784Z,8.98
2022-12-20T02:24:47.566Z,8.13
2022-12-20T02:27:42.488Z,9.07
2022-12-20T02:30:18.580Z,9.52
2022-12-20T02:32:59.085Z,9.80
2022-12-20T02:35:31.484Z,7.78
2022-12-20T02:38:04.946Z,9.40
2022-12-20T02:40:42.372Z,10.07
2022-12-20T02:43:29.424Z,8.70
2022-12-20T02:45:59.278Z,8.35
2022-12-20T02:48:29.322Z,8.38
2022-12-20T02:50:59.145Z,9.88
2022-12-20T02:53:26.580Z,11.63
2022-12-20T02:56:14.822Z,9.07
2022-12-20T02:58:58.463Z,8.23
2022-12-20T03:01:36.733Z,8.80
2022-12-20T03:04:05.036Z,10.32
2022-12-20T03:06:31.817Z,9.75
2022-12-20T03:08:58.609Z,9.00
2022-12-20T03:11:28.196Z,10.60
2022-12-20T03:13:55.323Z,7.55
2022-12-20T03:16:22.266Z,7.60
2022-12-20T03:18:49.153Z,6.65
2022-12-20T03:21:15.986Z,7.95
2022-12-20T03:23:42.797Z,8.77
2022-12-20T03:26:09.604Z,7.93
2022-12-20T03:28:41.952Z,9.93
2022-12-20T03:31:11.480Z,9.35
2022-12-20T03:33:45.105Z,9.07
2022-12-20T03:36:12.224Z,7.95
2022-12-20T03:38:39.415Z,9.95
2022-12-20T03:41:07.966Z,9.80
2022-12-20T03:43:34.833Z,6.60
2022-12-20T03:46:02.254Z,8.60
2022-12-20T03:48:34.298Z,8.40
2022-12-20T03:51:01.207Z,7.20
2022-12-20T03:53:28.007Z,7.20
2022-12-20T03:55:54.980Z,8.77
2022-12-20T03:58:22.017Z,7.45
2022-12-20T04:00:48.979Z,9.18
2022-12-20T04:03:37.994Z,7.90
2022-12-20T04:06:04.963Z,6.70
2022-12-20T04:08:32.189Z,7.65
2022-12-20T04:11:17.490Z,5.85
2022-12-20T04:14:07.227Z,7.28
2022-12-20T04:16:34.630Z,6.90
2022-12-20T04:19:02.410Z,6.55
2022-12-20T04:21:35.956Z,6.00
2022-12-20T04:24:05.748Z,6.93
2022-12-20T04:26:51.112Z,6.32
2022-12-20T04:29:18.184Z,6.68
2022-12-20T04:31:46.182Z,6.78
2022-12-20T04:34:13.072Z,7.05
2022-12-20T04:36:40.043Z,6.70
2022-12-20T04:39:12.867Z,6.63
2022-12-20T04:41:59.908Z,5.15
2022-12-20T04:44:26.780Z,5.57
2022-12-20T04:46:53.734Z,7.45
2022-12-20T04:49:20.679Z,6.57
2022-12-20T04:51:47.470Z,5.25
2022-12-20T04:54:16.764Z,8.45
2022-12-20T04:56:51.016Z,6.03
2022-12-20T04:59:21.729Z,5.50
2022-12-20T05:04:37.912Z,5.82
2022-12-20T05:07:05.370Z,5.28
2022-12-20T05:09:33.012Z,4.90
2022-12-20T05:12:00.434Z,6.40
2022-12-20T05:14:27.384Z,4.85
2022-12-20T05:16:54.558Z,6.85
2022-12-20T05:19:21.559Z,6.25
2022-12-20T05:22:06.916Z,6.43
2022-12-20T05:24:55.131Z,5.20
2022-12-20T05:27:31.820Z,6.60
2022-12-20T05:29:58.647Z,6.60
2022-12-20T05:32:27.660Z,5.07
2022-12-20T05:34:55.324Z,6.60
2022-12-20T05:37:22.395Z,5.65
2022-12-20T05:39:50.291Z,5.50
2022-12-20T05:42:20.999Z,5.82
2022-12-20T05:44:51.491Z,5.18
2022-12-20T05:47:20.516Z,6.57
2022-12-20T05:49:49.811Z,5.57
2022-12-20T05:52:16.633Z,5.80
2022-12-20T05:54:43.692Z,5.32
2022-12-20T05:57:15.904Z,6.18
2022-12-20T05:59:42.841Z,5.38
2022-12-20T06:02:27.807Z,4.57
2022-12-20T06:05:02.709Z,6.25
2022-12-20T06:07:30.370Z,5.53
2022-12-20T06:09:59.738Z,6.57
2022-12-20T06:12:38.420Z,5.45
2022-12-20T06:15:05.619Z,5.43
2022-12-20T06:17:35.318Z,4.68
2022-12-20T06:20:02.693Z,5.82
2022-12-20T06:22:30.184Z,7.68
2022-12-20T06:24:57.659Z,7.03
2022-12-20T06:27:28.024Z,6.68
2022-12-20T06:30:16.985Z,5.80
2022-12-20T06:33:04.350Z,5.75
2022-12-20T06:35:31.977Z,6.70
2022-12-20T06:37:59.687Z,6.22
2022-12-20T06:40:29.589Z,6.18
2022-12-20T06:42:59.949Z,5.55
2022-12-20T06:45:26.869Z,5.53
2022-12-20T06:47:54.532Z,4.88
2022-12-20T06:50:23.356Z,5.22
2022-12-20T06:52:50.416Z,5.75
2022-12-20T06:55:17.556Z,4.15
2022-12-20T06:57:45.901Z,6.07
2022-12-20T07:00:13.913Z,4.50
2022-12-20T07:02:41.028Z,4.53
2022-12-20T07:05:08.265Z,5.45
2022-12-20T07:07:40.228Z,4.35
2022-12-20T07:10:11.267Z,5.80
2022-12-20T07:12:42.372Z,5.57
2022-12-20T07:15:12.362Z,5.32
2022-12-20T07:17:39.231Z,5.32
2022-12-20T07:20:12.927Z,5.05
2022-12-20T07:22:40.609Z,4.00
2022-12-20T07:25:07.594Z,5.25
2022-12-20T07:27:34.365Z,5.35
2022-12-20T07:30:01.116Z,5.07
2022-12-20T07:32:27.902Z,5.78
2022-12-20T07:34:54.675Z,6.10
2022-12-20T07:37:21.554Z,6.15
2022-12-20T07:39:48.320Z,5.93
2022-12-20T07:42:15.590Z,5.10
2022-12-20T07:44:43.393Z,7.65
2022-12-20T07:47:10.588Z,4.20
2022-12-20T07:49:37.574Z,4.95
2022-12-20T07:52:05.772Z,5.38
2022-12-20T07:54:37.567Z,5.28
2022-12-20T07:57:15.239Z,5.05
2022-12-20T07:59:47.586Z,6.60
2022-12-20T08:02:23.480Z,4.28
2022-12-20T08:04:50.751Z,4.10
2022-12-20T08:07:17.689Z,4.68
2022-12-20T08:09:45.380Z,4.43
2022-12-20T08:12:16.877Z,4.53
2022-12-20T08:14:44.024Z,5.13
2022-12-20T08:17:11.762Z,4.97
2022-12-20T08:19:38.784Z,4.57
2022-12-20T08:22:06.148Z,6.72
2022-12-20T08:24:34.516Z,6.15
2022-12-20T08:27:01.388Z,5.53
2022-12-20T08:29:28.277Z,6.82
2022-12-20T08:31:55.093Z,7.65
2022-12-20T08:34:21.908Z,6.15
2022-12-20T08:36:48.771Z,5.90
2022-12-20T08:39:15.556Z,5.78
2022-12-20T08:41:42.377Z,6.85
2022-12-20T08:44:10.619Z,6.03
2022-12-20T08:46:37.761Z,6.13
2022-12-20T08:49:06.419Z,8.18
2022-12-20T08:51:33.288Z,9.27
2022-12-20T08:54:00.267Z,10.07
2022-12-20T08:56:27.014Z,9.85
2022-12-20T08:58:53.838Z,7.95
2022-12-20T09:01:21.853Z,8.43
2022-12-20T09:03:49.360Z,9.40
2022-12-20T09:06:21.420Z,8.15
2022-12-20T09:08:48.884Z,7.93
2022-12-20T09:11:25.128Z,5.95
2022-12-20T09:13:58.002Z,6.25
2022-12-20T09:16:32.239Z,8.15
2022-12-20T09:19:05.419Z,8.07
2022-12-20T09:21:34.136Z,8.45
2022-12-20T09:24:00.887Z,7.22
2022-12-20T09:26:27.775Z,6.57
2022-12-20T09:28:54.633Z,6.90
2022-12-20T09:31:25.269Z,8.00
2022-12-20T09:33:57.891Z,7.30
2022-12-20T09:36:27.509Z,11.68
2022-12-20T09:38:55.562Z,8.40
2022-12-20T09:41:30.093Z,6.20
2022-12-20T09:43:59.212Z,5.25
2022-12-20T09:46:27.236Z,5.87
2022-12-20T09:48:54.513Z,5.78
2022-12-20T09:51:47.237Z,5.10
2022-12-20T09:54:46.701Z,4.10
2022-12-20T09:57:48.987Z,5.57
2022-12-20T10:00:19.172Z,4.35
2022-12-20T10:03:06.112Z,5.40
2022-12-20T10:05:56.402Z,5.45
2022-12-20T10:08:50.549Z,6.65
2022-12-20T10:11:51.106Z,7.68
2022-12-20T10:14:27.107Z,5.05
2022-12-20T10:17:01.496Z,4.47
2022-12-20T10:19:49.825Z,4.97
2022-12-20T10:22:29.391Z,4.93
2022-12-20T10:25:11.675Z,5.10
2022-12-20T10:27:43.134Z,6.60
2022-12-20T10:30:16.157Z,3.97
2022-12-20T10:32:49.573Z,4.47
2022-12-20T10:35:40.367Z,5.07
2022-12-20T10:38:13.715Z,4.53
2022-12-20T10:41:19.556Z,4.60
2022-12-20T10:43:47.808Z,4.53
2022-12-20T10:46:19.305Z,5.55
2022-12-20T10:48:48.852Z,6.10
2022-12-20T10:51:21.912Z,5.75
2022-12-20T10:53:57.669Z,5.60
2022-12-20T10:56:29.326Z,4.93
2022-12-20T10:59:03.340Z,5.30
2022-12-20T11:01:35.438Z,4.35
2022-12-20T11:04:07.052Z,6.00
2022-12-20T11:06:45.386Z,6.78
2022-12-20T11:09:35.273Z,4.50
2022-12-20T11:12:12.575Z,5.72
2022-12-20T11:14:41.788Z,5.82
2022-12-20T11:17:14.519Z,4.88
2022-12-20T11:20:16.742Z,5.65
2022-12-20T11:22:51.365Z,4.80
2022-12-20T11:25:56.266Z,5.57
2022-12-20T11:28:44.511Z,6.53
2022-12-20T11:31:36.297Z,5.90
2022-12-20T11:34:42.673Z,5.05
2022-12-20T11:37:24.927Z,5.45
2022-12-20T11:40:10.746Z,5.20
2022-12-20T11:43:25.185Z,5.47
2022-12-20T11:46:30.834Z,5.85
2022-12-20T11:49:27.767Z,6.38
2022-12-20T11:52:10.541Z,5.60
2022-12-20T11:54:47.109Z,5.05
2022-12-20T11:57:26.591Z,5.00
2022-12-20T12:00:00.523Z,4.15
2022-12-20T12:02:51.611Z,4.32
2022-12-20T12:05:51.253Z,3.90
2022-12-20T12:08:27.882Z,5.28
2022-12-20T12:11:06.280Z,4.75
2022-12-20T12:13:37.942Z,6.20
2022-12-20T12:16:30.397Z,4.85
2022-12-20T12:19:00.668Z,5.22
2022-12-20T12:21:37.193Z,4.93
2022-12-20T12:24:33.435Z,5.97
2022-12-20T12:27:00.899Z,5.65
2022-12-20T12:29:30.865Z,6.30
2022-12-20T12:32:11.186Z,8.40
2022-12-20T12:35:28.541Z,6.85
2022-12-20T12:38:36.253Z,7.60
2022-12-20T12:41:34.985Z,8.52
2022-12-20T12:44:20.669Z,6.38
2022-12-20T12:46:58.155Z,6.93
2022-12-20T12:49:29.804Z,7.22
2022-12-20T12:52:01.327Z,9.05
2022-12-20T12:54:39.405Z,5.53
2022-12-20T12:57:16.166Z,5.60
2022-12-20T12:59:48.661Z,6.47
2022-12-20T13:02:16.208Z,5.60
2022-12-20T13:05:10.556Z,5.55
2022-12-20T13:07:37.388Z,9.93
2022-12-20T13:10:10.201Z,7.63
2022-12-20T13:12:36.911Z,14.52
2022-12-20T13:15:26.395Z,19.40
2022-12-20T13:18:17.732Z,13.18
2022-12-20T13:21:29.183Z,12.55
2022-12-20T13:24:42.427Z,22.00
2022-12-20T13:27:23.557Z,35.10
2022-12-20T13:29:57.527Z,9.93
2022-12-20T13:32:56.861Z,12.32
2022-12-20T13:35:26.895Z,7.93
2022-12-20T13:40:43.628Z,6.40
2022-12-20T13:43:19.439Z,4.72
2022-12-20T13:45:51.127Z,4.97
2022-12-20T13:48:28.644Z,6.18
2022-12-20T13:50:57.412Z,9.18
2022-12-20T13:53:27.167Z,8.90
2022-12-20T13:55:54.874Z,5.43
2022-12-20T13:58:27.243Z,6.80
2022-12-20T14:01:05.477Z,8.27
2022-12-20T14:03:33.849Z,9.80
2022-12-20T14:06:09.805Z,10.50
2022-12-20T14:08:42.296Z,6.85
2022-12-20T14:11:24.156Z,6.93
2022-12-20T14:14:00.421Z,6.50
2022-12-20T14:16:30.752Z,6.05
2022-12-20T14:18:57.445Z,8.55
2022-12-20T14:21:25.615Z,6.78
2022-12-20T14:23:56.533Z,6.30
2022-12-20T14:26:45.458Z,9.82
2022-12-20T14:29:18.396Z,13.75
2022-12-20T14:31:49.927Z,9.65
2022-12-20T14:34:29.329Z,6.75
2022-12-20T14:40:11.212Z,4.88
2022-12-20T14:42:40.192Z,5.55
2022-12-20T14:45:09.616Z,6.47
2022-12-20T14:47:37.936Z,5.82
2022-12-20T14:50:18.779Z,4.97
2022-12-20T14:52:46.048Z,5.28
2022-12-20T14:55:25.380Z,5.25
2022-12-20T14:57:55.173Z,5.43
2022-12-20T15:00:29.812Z,5.60
2022-12-20T15:02:56.724Z,4.82
2022-12-20T15:05:36.365Z,5.93
2022-12-20T15:08:33.779Z,10.35
2022-12-20T15:11:10.222Z,6.47
2022-12-20T15:13:49.795Z,6.25
2022-12-20T15:16:24.140Z,7.85
2022-12-20T15:18:55.119Z,6.90
2022-12-20T15:21:42.655Z,7.50
2022-12-20T15:24:14.222Z,9.32
2022-12-20T15:26:41.356Z,8.07
2022-12-20T15:29:15.555Z,9.35
2022-12-20T15:31:42.529Z,9.35
2022-12-20T15:34:38.220Z,9.00
2022-12-20T15:37:06.179Z,10.35
2022-12-20T15:39:34.155Z,7.90
2022-12-20T15:42:04.882Z,6.93
2022-12-20T15:44:32.346Z,7.95
2022-12-20T15:46:59.471Z,7.63
2022-12-20T15:49:30.281Z,7.28
2022-12-20T15:51:57.091Z,7.30
2022-12-20T15:54:34.604Z,9.52
2022-12-20T15:57:13.524Z,7.65
2022-12-20T16:02:30.745Z,9.00
2022-12-20T16:04:58.637Z,7.60
2022-12-20T16:07:25.544Z,8.90
2022-12-20T16:09:52.380Z,8.70
2022-12-20T16:12:28.411Z,5.82
2022-12-20T16:14:55.382Z,7.10
2022-12-20T16:17:22.254Z,6.90
2022-12-20T16:19:49.058Z,7.78
2022-12-20T16:22:19.237Z,12.70
2022-12-20T16:24:46.596Z,13.07
2022-12-20T16:27:13.940Z,9.27
2022-12-20T16:29:41.493Z,9.20
2022-12-20T16:32:18.869Z,9.85
2022-12-20T16:34:46.302Z,6.53
2022-12-20T16:37:13.856Z,7.40
2022-12-20T16:39:41.592Z,7.15
2022-12-20T16:42:17.308Z,5.22
2022-12-20T16:44:45.335Z,5.45
2022-12-20T16:47:13.658Z,5.28
2022-12-20T16:49:47.294Z,5.55
2022-12-20T16:52:19.586Z,9.38
2022-12-20T16:54:46.604Z,7.72
2022-12-20T16:57:13.533Z,7.95
2022-12-20T16:59:40.353Z,6.63
2022-12-20T17:02:24.808Z,8.18
2022-12-20T17:04:52.010Z,7.10
2022-12-20T17:07:18.871Z,8.93
2022-12-20T17:12:30.040Z,8.30
2022-12-20T17:14:57.036Z,7.72
2022-12-20T17:17:23.813Z,11.50
2022-12-20T17:19:50.617Z,13.43
2022-12-20T17:22:24.731Z,19.90
2022-12-20T17:24:51.720Z,19.88
2022-12-20T17:27:18.921Z,14.13
2022-12-20T17:29:45.720Z,12.23
2022-12-20T17:32:21.603Z,10.20
2022-12-20T17:34:48.764Z,8.32
2022-12-20T17:37:17.783Z,10.77
2022-12-20T17:39:44.583Z,7.70
2022-12-20T17:42:19.142Z,8.65
2022-12-20T17:44:48.772Z,9.65
2022-12-20T17:47:17.135Z,10.20
2022-12-20T17:49:43.887Z,7.60
2022-12-20T17:52:15.276Z,8.50
2022-12-20T17:54:42.095Z,6.78
2022-12-20T17:57:15.900Z,7.93
2022-12-20T17:59:43.104Z,6.43
2022-12-20T18:02:25.803Z,9.25
2022-12-20T18:04:53.102Z,8.85
2022-12-20T18:07:20.344Z,8.43
2022-12-20T18:09:48.293Z,6.53
2022-12-20T18:12:15.272Z,8.45
2022-12-20T18:14:42.138Z,7.70
2022-12-20T18:17:09.015Z,7.20
2022-12-20T18:19:35.925Z,9.15
2022-12-20T18:22:04.438Z,8.95
2022-12-20T18:24:31.285Z,7.25
2022-12-20T18:26:58.071Z,5.32
2022-12-20T18:29:24.863Z,4.63
2022-12-20T18:31:52.405Z,5.30
2022-12-20T18:34:19.437Z,4.93
2022-12-20T18:36:46.229Z,5.47
2022-12-20T18:39:13.546Z,5.90
2022-12-20T18:41:42.781Z,5.43
2022-12-20T18:44:11.272Z,5.13
2022-12-20T18:46:38.201Z,5.22
2022-12-20T18:49:05.131Z,5.40
2022-12-20T18:51:37.903Z,7.38
2022-12-20T18:54:07.759Z,5.55
2022-12-20T18:56:37.646Z,5.75
2022-12-20T18:59:11.485Z,5.63
2022-12-20T19:01:41.466Z,5.07
2022-12-20T19:04:09.062Z,4.20
2022-12-20T19:06:36.823Z,4.90
2022-12-20T19:09:07.900Z,5.00
2022-12-20T19:11:35.303Z,5.65
2022-12-20T19:14:02.546Z,5.95
2022-12-20T19:16:32.433Z,6.18
2022-12-20T19:19:01.492Z,4.97
2022-12-20T19:21:31.585Z,7.38
2022-12-20T19:24:04.946Z,5.95
2022-12-20T19:26:31.743Z,6.20
2022-12-20T19:28:58.853Z,4.72
2022-12-20T19:31:32.078Z,5.47
2022-12-20T19:34:03.243Z,5.75
2022-12-20T19:36:38.629Z,13.10
2022-12-20T19:39:10.495Z,14.02
2022-12-20T19:41:37.283Z,10.27
2022-12-20T19:44:05.990Z,7.45
2022-12-20T19:46:33.190Z,7.13
2022-12-20T19:49:01.271Z,5.25
2022-12-20T19:51:28.847Z,6.38
2022-12-20T19:53:57.632Z,4.82
2022-12-20T19:56:29.095Z,5.82
2022-12-20T19:58:56.481Z,6.47
2022-12-20T20:01:26.702Z,5.00
2022-12-20T20:03:57.066Z,5.03
2022-12-20T20:06:24.380Z,6.75
2022-12-20T20:08:51.696Z,8.20
2022-12-20T20:11:20.098Z,8.57
2022-12-20T20:13:47.451Z,9.65
2022-12-20T20:16:20.257Z,7.47
2022-12-20T20:18:49.691Z,8.38
2022-12-20T20:21:21.227Z,6.30
2022-12-20T20:23:50.473Z,5.30
2022-12-20T20:26:22.216Z,5.88
2022-12-20T20:28:49.250Z,7.72
2022-12-20T20:31:18.431Z,5.13
2022-12-20T20:33:46.128Z,4.75
2022-12-20T20:36:16.768Z,4.82
2022-12-20T20:38:43.819Z,5.30
2022-12-20T20:41:11.537Z,4.93
2022-12-20T20:43:39.166Z,4.85
2022-12-20T20:46:09.305Z,5.85
2022-12-20T20:48:36.983Z,9.98
2022-12-20T20:51:04.811Z,18.08
2022-12-20T20:53:34.116Z,13.02
2022-12-20T20:56:02.946Z,13.85
2022-12-20T20:58:30.186Z,9.90
2022-12-20T21:01:01.695Z,10.65
2022-12-20T21:03:30.518Z,11.80
2022-12-20T21:08:44.862Z,7.68
2022-12-20T21:11:11.872Z,7.55
2022-12-20T21:13:38.929Z,6.45
2022-12-20T21:16:08.517Z,8.43
2022-12-20T21:18:35.376Z,7.57
2022-12-20T21:21:11.432Z,9.68
2022-12-20T21:23:43.567Z,9.00
2022-12-20T21:26:10.403Z,7.35
2022-12-20T21:28:37.225Z,8.55
2022-12-20T21:31:09.014Z,6.78
2022-12-20T21:33:35.968Z,6.75
2022-12-20T21:36:11.027Z,9.07
2022-12-20T21:38:37.888Z,8.63
2022-12-20T21:41:08.853Z,6.75
2022-12-20T21:43:35.647Z,8.07
2022-12-20T21:46:03.048Z,7.32
2022-12-20T21:48:30.639Z,9.00
2022-12-20T21:51:13.627Z,7.60
2022-12-20T21:53:46.781Z,6.82
2022-12-20T21:56:13.938Z,6.63
2022-12-20T21:58:40.749Z,7.45
2022-12-20T22:01:09.004Z,5.32
2022-12-20T22:03:37.708Z,5.78
2022-12-20T22:06:05.086Z,8.23
2022-12-20T22:08:33.109Z,8.77
2022-12-20T22:11:01.338Z,8.63
2022-12-20T22:13:30.604Z,7.25
2022-12-20T22:16:05.311Z,11.25
2022-12-20T22:18:32.218Z,9.18
2022-12-20T22:20:59.020Z,8.23
2022-12-20T22:23:25.806Z,9.30
2022-12-20T22:25:52.633Z,7.35
2022-12-20T22:28:19.394Z,7.45
2022-12-20T22:30:46.262Z,5.53
2022-12-20T22:33:13.168Z,6.15
2022-12-20T22:35:40.988Z,6.63
2022-12-20T22:38:07.878Z,7.00
2022-12-20T22:40:34.674Z,7.22
2022-12-20T22:43:01.504Z,6.93
2022-12-20T22:45:28.323Z,7.03
2022-12-20T22:47:55.115Z,6.72
2022-12-20T22:50:22.129Z,9.88
2022-12-20T22:52:48.930Z,6.07
2022-12-20T22:55:15.855Z,7.40
2022-12-20T22:57:42.647Z,9.48
2022-12-20T23:00:13.137Z,15.02
2022-12-20T23:02:41.092Z,15.10
2022-12-20T23:05:09.084Z,17.60
2022-12-20T23:07:36.024Z,14.27
2022-12-20T23:10:02.910Z,14.75
2022-12-20T23:12:48.091Z,10.35
2022-12-20T23:15:33.309Z,7.55
2022-12-20T23:18:00.181Z,9.98
2022-12-20T23:20:53.138Z,12.02
2022-12-20T23:23:19.969Z,13.07
2022-12-20T23:25:46.724Z,9.68
2022-12-20T23:28:13.511Z,11.23
2022-12-20T23:30:40.332Z,9.57
2022-12-20T23:33:07.099Z,8.75
2022-12-20T23:35:33.881Z,8.70
2022-12-20T23:38:02.235Z,6.15
2022-12-20T23:40:29.035Z,9.02
2022-12-20T23:42:55.773Z,7.30
2022-12-20T23:45:22.607Z,5.60
2022-12-20T23:47:49.431Z,6.90
2022-12-20T23:50:16.242Z,8.88
2022-12-20T23:52:43.016Z,6.10
2022-12-20T23:55:09.996Z,7.32
2022-12-20T23:57:36.751Z,6.50
